createdAt,value
2019-06-08T00:00:04.091Z,15.87
2019-06-08T00:02:33.356Z,16.10
2019-06-08T00:05:03.205Z,17.07
2019-06-08T00:07:32.522Z,13.93
2019-06-08T00:10:07.196Z,12.07
2019-06-08T00:12:38.090Z,15.05
2019-06-08T00:18:01.020Z,17.95
2019-06-08T00:20:32.293Z,11.60
2019-06-08T00:23:03.847Z,13.03
2019-06-08T00:25:34.197Z,8.60
2019-06-08T00:28:03.527Z,10.20
2019-06-08T00:30:33.483Z,10.00
2019-06-08T00:33:05.362Z,17.70
2019-06-08T00:35:45.398Z,11.08
2019-06-08T00:38:16.882Z,15.65
2019-06-08T00:40:46.196Z,12.43
2019-06-08T00:43:17.266Z,14.23
2019-06-08T00:45:46.839Z,14.38
2019-06-08T00:48:21.128Z,12.70
2019-06-08T00:50:52.803Z,10.15
2019-06-08T00:53:23.258Z,11.38
2019-06-08T00:55:52.654Z,9.70
2019-06-08T00:58:22.041Z,13.75
2019-06-08T01:00:51.518Z,10.28
2019-06-08T01:03:23.816Z,17.75
2019-06-08T01:05:56.554Z,15.58
2019-06-08T01:08:27.482Z,12.82
2019-06-08T01:11:02.461Z,11.20
2019-06-08T01:13:32.771Z,10.72
2019-06-08T01:16:05.292Z,12.47
2019-06-08T01:18:38.151Z,10.75
2019-06-08T01:21:08.692Z,8.75
2019-06-08T01:23:40.776Z,10.95
2019-06-08T01:26:13.301Z,10.65
2019-06-08T01:31:17.209Z,8.53
2019-06-08T01:33:51.631Z,8.95
2019-06-08T01:36:24.823Z,9.78
2019-06-08T01:38:54.462Z,12.95
2019-06-08T01:41:23.291Z,15.40
2019-06-08T01:43:52.671Z,15.00
2019-06-08T01:46:22.103Z,10.55
2019-06-08T01:48:52.752Z,20.48
2019-06-08T01:51:22.724Z,12.93
2019-06-08T01:53:53.424Z,9.90
2019-06-08T01:56:23.298Z,16.87
2019-06-08T01:59:05.282Z,28.85
2019-06-08T02:01:35.669Z,14.87
2019-06-08T02:04:06.262Z,10.98
2019-06-08T02:06:38.182Z,12.50
2019-06-08T02:11:55.487Z,14.28
2019-06-08T02:14:25.046Z,13.18
2019-06-08T02:16:53.890Z,10.25
2019-06-08T02:19:22.664Z,11.10
2019-06-08T02:21:51.516Z,11.12
2019-06-08T02:24:20.365Z,17.02
2019-06-08T02:26:49.256Z,14.63
2019-06-08T02:29:18.046Z,11.95
2019-06-08T02:31:48.152Z,14.80
2019-06-08T02:34:17.240Z,11.10
2019-06-08T02:36:46.113Z,16.32
2019-06-08T02:39:14.969Z,13.70
2019-06-08T02:41:43.833Z,12.80
2019-06-08T02:44:12.611Z,13.00
2019-06-08T02:46:41.414Z,11.53
2019-06-08T02:49:11.597Z,15.00
2019-06-08T02:51:41.155Z,15.80
2019-06-08T02:54:12.089Z,11.43
2019-06-08T02:56:43.423Z,10.43
2019-06-08T02:59:13.901Z,8.45
2019-06-08T03:01:43.139Z,15.05
2019-06-08T03:04:14.183Z,15.20
2019-06-08T03:06:46.309Z,13.15
2019-06-08T03:09:16.862Z,10.32
2019-06-08T03:11:46.731Z,9.70
2019-06-08T03:14:17.775Z,10.53
2019-06-08T03:16:46.682Z,12.25
2019-06-08T03:19:21.635Z,10.98
2019-06-08T03:21:46.024Z,12.93
2019-06-08T03:24:14.796Z,9.88
2019-06-08T03:26:44.184Z,14.50
2019-06-08T03:29:13.072Z,15.08
2019-06-08T03:31:51.623Z,12.45
2019-06-08T03:34:12.358Z,11.38
2019-06-08T03:36:53.662Z,9.55
2019-06-08T03:39:11.612Z,10.80
2019-06-08T03:41:59.717Z,9.43
2019-06-08T03:44:28.534Z,16.95
2019-06-08T03:46:57.370Z,13.13
2019-06-08T03:49:41.042Z,10.50
2019-06-08T03:51:59.827Z,9.28
2019-06-08T03:54:28.632Z,8.85
2019-06-08T03:56:57.384Z,12.60
2019-06-08T03:59:26.217Z,7.03
2019-06-08T04:01:55.028Z,10.23
2019-06-08T04:04:23.924Z,10.45
2019-06-08T04:06:52.683Z,10.28
2019-06-08T04:09:21.515Z,9.20
2019-06-08T04:11:50.468Z,11.45
2019-06-08T04:14:19.346Z,15.15
2019-06-08T04:16:48.159Z,8.48
2019-06-08T04:19:16.988Z,10.60
2019-06-08T04:21:46.237Z,8.48
2019-06-08T04:24:15.394Z,11.10
2019-06-08T04:26:45.493Z,9.88
2019-06-08T04:29:14.827Z,10.50
2019-06-08T04:31:43.934Z,11.50
2019-06-08T04:34:12.957Z,11.30
2019-06-08T04:36:43.493Z,14.63
2019-06-08T04:39:12.217Z,11.48
2019-06-08T04:41:42.620Z,7.53
2019-06-08T04:44:11.665Z,12.55
2019-06-08T04:46:40.883Z,9.93
2019-06-08T04:49:10.975Z,10.93
2019-06-08T04:51:40.804Z,12.58
2019-06-08T04:54:13.521Z,11.35
2019-06-08T04:56:40.930Z,12.28
2019-06-08T04:59:11.285Z,12.33
2019-06-08T05:01:40.873Z,12.58
2019-06-08T05:04:09.811Z,9.75
2019-06-08T05:06:39.080Z,10.78
2019-06-08T05:09:08.670Z,9.40
2019-06-08T05:11:38.921Z,8.80
2019-06-08T05:14:07.920Z,10.25
2019-06-08T05:16:36.808Z,8.48
2019-06-08T05:19:05.625Z,10.08
2019-06-08T05:21:34.448Z,12.10
2019-06-08T05:24:03.374Z,7.80
2019-06-08T05:26:32.141Z,6.35
2019-06-08T05:29:04.378Z,7.28
2019-06-08T05:31:33.344Z,10.05
2019-06-08T05:34:02.353Z,11.28
2019-06-08T05:36:33.418Z,10.23
2019-06-08T05:39:02.897Z,12.75
2019-06-08T05:41:31.769Z,9.38
2019-06-08T05:44:00.625Z,8.83
2019-06-08T05:46:29.461Z,8.78
2019-06-08T05:48:58.228Z,8.90
2019-06-08T05:51:27.049Z,9.40
2019-06-08T05:53:55.865Z,11.30
2019-06-08T05:56:24.710Z,7.97
2019-06-08T05:58:53.592Z,7.65
2019-06-08T06:01:22.417Z,10.53
2019-06-08T06:03:51.929Z,8.13
2019-06-08T06:06:21.146Z,10.10
2019-06-08T06:08:50.930Z,10.53
2019-06-08T06:11:20.210Z,8.03
2019-06-08T06:13:49.227Z,9.73
2019-06-08T06:16:18.217Z,6.80
2019-06-08T06:18:47.105Z,9.08
2019-06-08T06:21:15.903Z,8.55
2019-06-08T06:23:45.215Z,33.00
2019-06-08T06:26:14.093Z,38.15
2019-06-08T06:28:43.318Z,32.85
2019-06-08T06:31:12.128Z,31.60
2019-06-08T06:33:42.004Z,31.27
2019-06-08T06:36:10.832Z,14.15
2019-06-08T06:38:39.688Z,6.75
2019-06-08T06:41:08.515Z,13.32
2019-06-08T06:43:37.345Z,14.05
2019-06-08T06:46:06.124Z,18.12
2019-06-08T06:48:36.079Z,7.35
2019-06-08T06:51:04.918Z,3.70
2019-06-08T06:53:35.262Z,10.75
2019-06-08T06:56:04.032Z,8.85
2019-06-08T06:58:32.852Z,13.48
2019-06-08T07:01:01.971Z,9.68
2019-06-08T07:03:30.864Z,6.75
2019-06-08T07:05:59.708Z,6.40
2019-06-08T07:08:28.680Z,7.20
2019-06-08T07:10:58.274Z,6.35
2019-06-08T07:13:27.168Z,7.05
2019-06-08T07:15:58.286Z,5.72
2019-06-08T07:18:28.657Z,4.75
2019-06-08T07:20:58.526Z,9.30
2019-06-08T07:23:30.030Z,4.28
2019-06-08T07:26:01.551Z,4.10
2019-06-08T07:28:30.676Z,6.43
2019-06-08T07:31:05.681Z,4.45
2019-06-08T07:33:37.362Z,6.80
2019-06-08T07:36:06.186Z,6.90
2019-06-08T07:38:35.012Z,8.23
2019-06-08T07:41:05.311Z,9.13
2019-06-08T07:43:34.150Z,6.22
2019-06-08T07:46:03.726Z,10.48
2019-06-08T07:48:32.561Z,5.17
2019-06-08T07:51:02.858Z,4.40
2019-06-08T07:53:31.651Z,10.70
2019-06-08T07:56:00.465Z,8.28
2019-06-08T07:58:29.445Z,5.80
2019-06-08T08:01:07.352Z,7.85
2019-06-08T08:03:31.648Z,5.12
2019-06-08T08:06:00.428Z,4.37
2019-06-08T08:08:31.937Z,4.53
2019-06-08T08:11:00.875Z,4.57
2019-06-08T08:13:31.306Z,4.87
2019-06-08T08:16:00.733Z,6.45
2019-06-08T08:18:31.540Z,8.55
2019-06-08T08:21:09.041Z,8.25
2019-06-08T08:23:31.073Z,5.53
2019-06-08T08:26:01.745Z,6.55
2019-06-08T08:28:30.391Z,5.87
2019-06-08T08:31:01.701Z,4.60
2019-06-08T08:33:32.421Z,5.90
2019-06-08T08:36:01.995Z,5.80
2019-06-08T08:38:30.939Z,4.08
2019-06-08T08:41:06.904Z,5.60
2019-06-08T08:43:31.210Z,4.17
2019-06-08T08:46:01.836Z,4.58
2019-06-08T08:48:31.903Z,7.00
2019-06-08T08:51:03.351Z,5.08
2019-06-08T08:53:34.271Z,7.55
2019-06-08T08:56:18.147Z,4.40
2019-06-08T08:58:47.902Z,9.05
2019-06-08T09:01:20.236Z,8.78
2019-06-08T09:03:48.280Z,3.33
2019-06-08T09:06:18.223Z,4.05
2019-06-08T09:08:48.497Z,4.47
2019-06-08T09:11:17.680Z,4.22
2019-06-08T09:13:48.680Z,5.03
2019-06-08T09:16:18.219Z,4.00
2019-06-08T09:18:47.975Z,5.62
2019-06-08T09:21:18.603Z,5.25
2019-06-08T09:23:48.609Z,4.53
2019-06-08T09:26:17.755Z,5.10
2019-06-08T09:28:46.764Z,4.95
2019-06-08T09:31:15.635Z,5.92
2019-06-08T09:33:55.174Z,5.53
2019-06-08T09:36:17.744Z,4.80
2019-06-08T09:38:47.898Z,7.55
2019-06-08T09:41:18.633Z,5.97
2019-06-08T09:43:48.701Z,5.20
2019-06-08T09:46:17.974Z,7.87
2019-06-08T09:48:48.666Z,8.25
2019-06-08T09:51:18.646Z,4.35
2019-06-08T09:53:47.802Z,4.97
2019-06-08T09:56:18.477Z,3.42
2019-06-08T09:58:51.170Z,4.10
2019-06-08T10:01:18.551Z,10.50
2019-06-08T10:03:50.014Z,6.30
2019-06-08T10:06:18.917Z,3.42
2019-06-08T10:08:48.115Z,6.47
2019-06-08T10:11:17.341Z,6.55
2019-06-08T10:13:47.769Z,3.95
2019-06-08T10:16:18.566Z,5.62
2019-06-08T10:18:51.556Z,5.37
2019-06-08T10:21:21.106Z,7.83
2019-06-08T10:23:50.294Z,6.35
2019-06-08T10:26:22.739Z,6.37
2019-06-08T10:29:00.335Z,4.10
2019-06-08T10:31:39.113Z,7.67
2019-06-08T10:34:02.167Z,10.38
2019-06-08T10:36:32.997Z,8.98
2019-06-08T10:39:03.839Z,6.33
2019-06-08T10:41:32.733Z,4.30
2019-06-08T10:44:03.478Z,6.12
2019-06-08T10:46:34.831Z,7.70
2019-06-08T10:49:04.176Z,8.70
2019-06-08T10:51:33.693Z,3.95
2019-06-08T10:54:02.493Z,4.50
2019-06-08T10:56:31.343Z,5.92
2019-06-08T10:59:03.148Z,5.03
2019-06-08T11:01:30.721Z,6.87
2019-06-08T11:04:01.307Z,4.78
2019-06-08T11:06:30.077Z,8.93
2019-06-08T11:09:03.737Z,5.75
2019-06-08T11:11:29.509Z,4.62
2019-06-08T11:14:00.236Z,5.42
2019-06-08T11:16:28.997Z,5.78
2019-06-08T11:18:59.079Z,6.00
2019-06-08T11:21:28.579Z,3.70
2019-06-08T11:24:07.449Z,10.43
2019-06-08T11:26:28.908Z,4.45
2019-06-08T11:28:58.668Z,7.83
2019-06-08T11:31:31.231Z,6.53
2019-06-08T11:33:58.976Z,4.70
2019-06-08T11:36:28.948Z,6.35
2019-06-08T11:38:59.176Z,5.10
2019-06-08T11:41:28.367Z,3.90
2019-06-08T11:43:59.571Z,8.35
2019-06-08T11:46:28.222Z,7.40
2019-06-08T11:48:57.759Z,9.33
2019-06-08T11:51:29.769Z,5.42
2019-06-08T11:53:59.382Z,8.25
2019-06-08T11:56:29.193Z,6.15
2019-06-08T11:58:58.555Z,5.50
2019-06-08T12:01:27.711Z,7.65
2019-06-08T12:03:57.958Z,3.92
2019-06-08T12:06:26.960Z,6.95
2019-06-08T12:08:57.358Z,6.47
2019-06-08T12:11:28.402Z,4.83
2019-06-08T12:13:58.466Z,6.50
2019-06-08T12:16:28.268Z,5.25
2019-06-08T12:18:58.629Z,7.45
2019-06-08T12:21:27.724Z,5.45
2019-06-08T12:23:56.564Z,6.75
2019-06-08T12:26:25.427Z,4.90
2019-06-08T12:28:54.247Z,9.43
2019-06-08T12:31:23.081Z,4.78
2019-06-08T12:33:51.904Z,6.15
2019-06-08T12:36:21.065Z,5.85
2019-06-08T12:38:49.992Z,5.80
2019-06-08T12:41:19.356Z,4.95
2019-06-08T12:43:48.383Z,6.35
2019-06-08T12:46:20.882Z,8.15
2019-06-08T12:48:47.769Z,6.55
2019-06-08T12:51:19.385Z,4.92
2019-06-08T12:53:47.075Z,4.67
2019-06-08T12:56:18.667Z,4.75
2019-06-08T12:58:47.616Z,6.70
2019-06-08T13:01:16.659Z,6.92
2019-06-08T13:03:48.252Z,6.15
2019-06-08T13:06:18.225Z,4.10
2019-06-08T13:08:47.810Z,4.72
2019-06-08T13:11:18.995Z,9.03
2019-06-08T13:13:48.856Z,4.72
2019-06-08T13:16:23.779Z,4.60
2019-06-08T13:18:48.412Z,4.75
2019-06-08T13:21:32.106Z,8.03
2019-06-08T13:23:48.115Z,4.50
2019-06-08T13:26:21.640Z,4.15
2019-06-08T13:28:47.583Z,4.55
2019-06-08T13:31:18.536Z,7.17
2019-06-08T13:33:48.577Z,4.20
2019-06-08T13:36:22.031Z,5.35
2019-06-08T13:38:48.194Z,8.83
2019-06-08T13:41:23.662Z,6.40
2019-06-08T13:43:47.843Z,8.65
2019-06-08T13:46:19.188Z,6.28
2019-06-08T13:48:48.206Z,5.35
2019-06-08T13:51:20.687Z,4.30
2019-06-08T13:53:49.796Z,8.85
2019-06-08T13:56:20.652Z,4.03
2019-06-08T13:58:48.812Z,5.28
2019-06-08T14:01:17.860Z,4.20
2019-06-08T14:03:49.807Z,7.50
2019-06-08T14:06:19.080Z,4.72
2019-06-08T14:08:49.898Z,6.40
2019-06-08T14:11:19.700Z,4.92
2019-06-08T14:13:49.502Z,3.55
2019-06-08T14:16:21.554Z,3.98
2019-06-08T14:18:48.961Z,4.42
2019-06-08T14:21:28.060Z,4.80
2019-06-08T14:23:48.519Z,4.08
2019-06-08T14:26:19.714Z,4.97
2019-06-08T14:28:50.379Z,8.05
2019-06-08T14:31:21.593Z,5.22
2019-06-08T14:33:59.462Z,10.78
2019-06-08T14:36:29.118Z,8.80
2019-06-08T14:39:02.251Z,4.50
2019-06-08T14:41:31.396Z,6.53
2019-06-08T14:43:59.697Z,7.47
2019-06-08T14:46:28.866Z,5.35
2019-06-08T14:48:59.031Z,4.55
2019-06-08T14:51:47.784Z,5.78
2019-06-08T14:54:18.710Z,4.08
2019-06-08T14:56:47.325Z,8.55
2019-06-08T14:59:18.846Z,4.80
2019-06-08T15:01:48.745Z,4.60
2019-06-08T15:04:22.423Z,6.25
2019-06-08T15:06:49.011Z,7.42
2019-06-08T15:09:21.388Z,6.25
2019-06-08T15:11:50.448Z,9.18
2019-06-08T15:14:19.472Z,5.87
2019-06-08T15:16:49.361Z,9.05
2019-06-08T15:19:20.302Z,5.33
2019-06-08T15:21:49.402Z,4.35
2019-06-08T15:24:18.684Z,5.10
2019-06-08T15:26:48.675Z,5.87
2019-06-08T15:29:17.947Z,6.78
2019-06-08T15:31:48.486Z,8.13
2019-06-08T15:34:18.028Z,8.40
2019-06-08T15:36:47.635Z,5.05
2019-06-08T15:39:17.996Z,7.92
2019-06-08T15:41:48.808Z,4.85
2019-06-08T15:44:21.180Z,5.12
2019-06-08T15:46:48.073Z,6.03
2019-06-08T15:49:18.642Z,6.65
2019-06-08T15:51:48.103Z,5.55
2019-06-08T15:54:17.061Z,5.58
2019-06-08T15:56:51.812Z,4.70
2019-06-08T15:59:16.247Z,4.78
2019-06-08T16:01:45.092Z,8.73
2019-06-08T16:04:15.608Z,6.50
2019-06-08T16:06:44.520Z,4.35
2019-06-08T16:09:13.368Z,7.50
2019-06-08T16:11:44.045Z,6.80
2019-06-08T16:14:12.823Z,8.53
2019-06-08T16:16:41.663Z,4.17
2019-06-08T16:19:10.442Z,6.25
2019-06-08T16:21:39.261Z,6.55
2019-06-08T16:24:08.023Z,8.50
2019-06-08T16:26:49.972Z,6.05
2019-06-08T16:29:07.432Z,4.40
2019-06-08T16:31:36.293Z,8.28
2019-06-08T16:34:06.208Z,5.30
2019-06-08T16:36:35.631Z,9.63
2019-06-08T16:39:07.129Z,7.67
2019-06-08T16:41:36.114Z,6.57
2019-06-08T16:44:07.230Z,17.87
2019-06-08T16:46:36.663Z,9.83
2019-06-08T16:49:05.734Z,5.30
2019-06-08T16:51:35.809Z,8.35
2019-06-08T16:54:04.804Z,6.40
2019-06-08T16:56:34.156Z,6.37
2019-06-08T16:59:03.130Z,7.05
2019-06-08T17:01:32.880Z,7.25
2019-06-08T17:04:03.287Z,6.90
2019-06-08T17:06:33.538Z,7.65
2019-06-08T17:09:02.507Z,7.03
2019-06-08T17:11:31.785Z,6.35
2019-06-08T17:14:00.747Z,7.35
2019-06-08T17:16:30.006Z,6.28
2019-06-08T17:18:59.030Z,8.83
2019-06-08T17:21:30.121Z,9.23
2019-06-08T17:23:59.255Z,8.60
2019-06-08T17:26:28.102Z,9.13
2019-06-08T17:28:56.948Z,14.78
2019-06-08T17:31:25.783Z,7.90
2019-06-08T17:33:54.641Z,7.90
2019-06-08T17:36:23.481Z,15.03
2019-06-08T17:38:52.317Z,7.22
2019-06-08T17:41:21.366Z,8.08
2019-06-08T17:43:50.138Z,9.80
2019-06-08T17:46:19.067Z,15.10
2019-06-08T17:48:48.521Z,6.70
2019-06-08T17:51:17.452Z,21.05
2019-06-08T17:53:46.318Z,8.35
2019-06-08T17:56:15.180Z,11.10
2019-06-08T17:58:44.033Z,45.40
2019-06-08T18:01:12.872Z,56.40
2019-06-08T18:03:42.806Z,20.00
2019-06-08T18:06:12.226Z,13.35
2019-06-08T18:08:43.641Z,12.40
2019-06-08T18:11:11.522Z,26.30
2019-06-08T18:13:42.505Z,7.50
2019-06-08T18:16:13.642Z,9.40
2019-06-08T18:18:47.944Z,7.83
2019-06-08T18:21:17.832Z,9.85
2019-06-08T18:23:48.154Z,27.35
2019-06-08T18:26:17.328Z,23.12
2019-06-08T18:28:48.565Z,14.87
2019-06-08T18:31:18.089Z,11.08
2019-06-08T18:33:50.072Z,8.95
2019-06-08T18:36:17.680Z,12.80
2019-06-08T18:38:48.594Z,12.33
2019-06-08T18:41:17.627Z,14.07
2019-06-08T18:43:49.559Z,14.50
2019-06-08T18:46:17.998Z,11.65
2019-06-08T18:48:49.307Z,13.78
2019-06-08T18:51:17.754Z,11.12
2019-06-08T18:54:06.882Z,6.85
2019-06-08T18:56:18.266Z,11.68
2019-06-08T18:58:51.527Z,11.88
2019-06-08T19:01:21.586Z,16.75
2019-06-08T19:03:52.315Z,14.68
2019-06-08T19:06:20.497Z,11.00
2019-06-08T19:08:52.396Z,9.50
2019-06-08T19:11:21.275Z,14.45
2019-06-08T19:13:52.040Z,11.57
2019-06-08T19:16:21.472Z,14.53
2019-06-08T19:18:52.783Z,14.90
2019-06-08T19:21:20.806Z,15.20
2019-06-08T19:23:50.518Z,11.65
2019-06-08T19:26:20.656Z,13.28
2019-06-08T19:28:53.543Z,13.53
2019-06-08T19:31:20.038Z,13.03
2019-06-08T19:33:53.352Z,14.60
2019-06-08T19:36:24.067Z,12.53
2019-06-08T19:38:54.718Z,14.83
2019-06-08T19:41:23.490Z,19.12
2019-06-08T19:43:55.451Z,14.03
2019-06-08T19:46:24.346Z,13.03
2019-06-08T19:48:54.877Z,13.88
2019-06-08T19:51:23.588Z,11.03
2019-06-08T19:53:54.870Z,12.05
2019-06-08T19:56:22.875Z,14.53
2019-06-08T19:59:00.950Z,18.77
2019-06-08T20:01:22.255Z,12.88
2019-06-08T20:03:51.168Z,10.65
2019-06-08T20:06:20.227Z,13.98
2019-06-08T20:08:51.390Z,14.33
2019-06-08T20:11:19.567Z,10.32
2019-06-08T20:13:50.448Z,13.05
2019-06-08T20:16:21.231Z,12.98
2019-06-08T20:18:51.256Z,12.18
2019-06-08T20:21:19.975Z,15.03
2019-06-08T20:23:50.789Z,8.78
2019-06-08T20:26:19.238Z,11.97
2019-06-08T20:28:51.238Z,11.60
2019-06-08T20:31:18.595Z,11.85
2019-06-08T20:33:50.260Z,10.98
2019-06-08T20:36:17.792Z,11.33
2019-06-08T20:38:47.503Z,11.22
2019-06-08T20:41:18.303Z,9.75
2019-06-08T20:43:50.142Z,9.95
2019-06-08T20:46:20.271Z,14.35
2019-06-08T20:48:50.056Z,13.05
2019-06-08T20:51:18.746Z,10.72
2019-06-08T20:53:49.363Z,10.32
2019-06-08T20:56:18.146Z,12.03
2019-06-08T20:58:48.355Z,14.93
2019-06-08T21:01:19.051Z,10.03
2019-06-08T21:03:51.585Z,10.38
2019-06-08T21:06:21.292Z,12.55
2019-06-08T21:08:51.618Z,10.43
2019-06-08T21:11:20.565Z,10.08
2019-06-08T21:13:51.174Z,19.07
2019-06-08T21:16:19.981Z,16.37
2019-06-08T21:18:48.780Z,14.93
2019-06-08T21:21:17.609Z,12.47
2019-06-08T21:23:50.883Z,12.23
2019-06-08T21:26:18.396Z,11.73
2019-06-08T21:28:51.221Z,15.20
2019-06-08T21:31:17.861Z,13.08
2019-06-08T21:33:49.087Z,12.65
2019-06-08T21:36:18.188Z,17.00
2019-06-08T21:38:50.305Z,16.87
2019-06-08T21:41:17.694Z,14.47
2019-06-08T21:43:48.938Z,12.60
2019-06-08T21:46:17.186Z,14.87
2019-06-08T21:48:48.650Z,16.50
2019-06-08T21:51:16.554Z,13.35
2019-06-08T21:53:48.266Z,15.80
2019-06-08T21:56:18.065Z,11.20
2019-06-08T21:58:47.317Z,11.65
2019-06-08T22:01:17.941Z,10.72
2019-06-08T22:03:49.537Z,12.03
2019-06-08T22:06:18.473Z,11.75
2019-06-08T22:08:48.118Z,9.25
2019-06-08T22:11:17.729Z,13.53
2019-06-08T22:13:48.403Z,13.30
2019-06-08T22:16:17.280Z,10.43
2019-06-08T22:18:47.550Z,10.55
2019-06-08T22:21:18.104Z,11.65
2019-06-08T22:23:48.738Z,12.13
2019-06-08T22:26:17.772Z,12.95
2019-06-08T22:28:48.181Z,11.97
2019-06-08T22:31:17.616Z,13.68
2019-06-08T22:33:48.318Z,16.55
2019-06-08T22:36:17.040Z,12.40
2019-06-08T22:38:47.722Z,15.03
2019-06-08T22:41:17.394Z,15.83
2019-06-08T22:43:48.137Z,11.85
2019-06-08T22:46:17.794Z,16.00
2019-06-08T22:48:47.760Z,16.73
2019-06-08T22:51:18.766Z,12.20
2019-06-08T22:53:47.809Z,14.95
2019-06-08T22:56:18.361Z,17.62
2019-06-08T22:58:47.959Z,13.60
2019-06-08T23:01:18.392Z,17.17
2019-06-08T23:03:47.732Z,15.48
2019-06-08T23:06:17.645Z,16.77
2019-06-08T23:08:48.062Z,16.75
2019-06-08T23:11:18.007Z,19.23
2019-06-08T23:13:47.289Z,19.10
2019-06-08T23:16:18.202Z,18.30
2019-06-08T23:18:47.777Z,17.60
2019-06-08T23:21:20.674Z,16.35
2019-06-08T23:23:49.435Z,19.73
2019-06-08T23:26:18.308Z,17.75
2019-06-08T23:28:48.302Z,20.35
2019-06-08T23:31:24.811Z,17.30
2019-06-08T23:33:48.171Z,19.48
2019-06-08T23:36:51.987Z,20.43
2019-06-08T23:39:08.813Z,19.62
2019-06-08T23:41:37.770Z,17.85
2019-06-08T23:44:07.823Z,16.93
2019-06-08T23:46:38.048Z,17.40
2019-06-08T23:49:07.741Z,17.60
2019-06-08T23:51:38.091Z,18.20
2019-06-08T23:54:10.539Z,14.13
2019-06-08T23:56:37.589Z,15.75
2019-06-08T23:59:07.295Z,13.83
